Bei Facebook empfehlenBei Twitter postenGoogle plusPinterest

Das Wetter im Erzgebirge am 05.10.2016

Wetter und Klima am 05.10.2016 Holzhau im Erzgebirge (630m ü.NN)
Letzte gemessene Temperatur und Uhrzeit der Messung23:45:00 Uhr4.60 °C
Temperatur (Maximum / Höchstwert) und Uhrzeit der Messung14:00:00 Uhr6.60 °C
Temperatur (Minimum / Tiefstwert) und Uhrzeit der Messung08:15:002.50 °C
Errechneter Absolutwert der Temperaturschwankungen zwischen Tmin und Tmax des Tages4.10 K
Errechnete Tagesmitteltemperatur4.13750 °C
Gesamt - Niederschlag des Tages (in flüssiger Form)9.84 Liter / m²
Luftdruck (Maximum / Höchstwert) und Zeitpunkt der Messung02:00:00 Uhr1027.30 hPa
Luftdruck (Minimum / Tiefstwert) und Zeitpunkt der Messung23:45:00 Uhr1016.90 hPa
Errechneter Absolutwert der Luftdruckschwankungen des Tages10.40 hPa
Höchste gemessene Windgeschwindigkeit und Uhrzeit der Messung23:45:00 Uhr0.00 km/h
Errechnete Windhäufigkeit in Relation zu den Messwerten des Tages0.00000 %
Niedrigste Windkühle (Windchill) und Zeitpunkt der Messung08:15:00 Uhr2.50 °C
Taupunkt (Maximum / Höchstwert) und Uhrzeit der Messung14:00:00 Uhr5.40 °C
Taupunkt (Minimum / Tiefstwert) und Uhrzeit der Messung06:30:001.40 °C
Anzahl der automatisch eingelesenen Messwerte 96

Detaillierte Wetter- und Klima- Messwerte für den 05.10.2016 in Holzhau im Erzgebirge (630m ü.NN)
ZeitTemperaturLuftdruckRel. LuftfeuchteWindWindrichtungWindchillTaupunktNiederschlag l/m²
23:45:004.60 °C1016.90 hPa95.00 %3.90 °C9.84
23:30:004.60 °C1017.20 hPa95.00 %3.90 °C9.33
23:15:004.60 °C1017.50 hPa95.00 %3.90 °C9.33
23:00:004.60 °C1017.50 hPa95.00 %3.90 °C8.81
22:45:004.50 °C1017.80 hPa95.00 %3.80 °C8.81
22:30:004.60 °C1017.90 hPa94.00 %3.70 °C8.81
22:15:004.50 °C1018.10 hPa94.00 %3.60 °C8.29
22:00:004.40 °C1018.00 hPa94.00 %3.50 °C8.29
21:45:004.20 °C1018.50 hPa94.00 %3.30 °C8.29
21:30:004.10 °C1018.50 hPa94.00 %3.20 °C8.29
21:15:003.90 °C1018.80 hPa94.00 %3.00 °C8.29
21:00:003.90 °C1019.00 hPa94.00 %3.00 °C8.29
20:45:003.90 °C1019.40 hPa94.00 %3.00 °C8.29
20:30:003.90 °C1019.30 hPa94.00 %3.00 °C7.77
20:15:003.90 °C1019.40 hPa93.00 %2.90 °C7.77
20:00:003.90 °C1019.60 hPa93.00 %2.90 °C7.77
19:45:003.90 °C1019.80 hPa93.00 %2.90 °C6.74
19:30:003.80 °C1019.60 hPa93.00 %2.80 °C6.74
19:15:003.60 °C1019.40 hPa93.00 %2.60 °C6.22
19:00:003.50 °C1019.70 hPa93.00 %2.50 °C6.22
18:45:003.50 °C1019.90 hPa93.00 %2.50 °C5.70
18:30:003.40 °C1020.20 hPa93.00 %2.40 °C5.70
18:15:003.30 °C1020.20 hPa93.00 %2.30 °C5.18
18:00:003.10 °C1020.40 hPa93.00 %2.10 °C5.18
17:45:002.90 °C1020.60 hPa92.00 %1.70 °C4.66
17:30:003.40 °C1021.10 hPa92.00 %2.20 °C4.15
17:15:004.90 °C1020.70 hPa92.00 %3.70 °C2.59
17:00:004.90 °C1020.80 hPa92.00 %3.70 °C2.07
16:45:004.90 °C1021.00 hPa92.00 %3.70 °C1.56
16:30:004.90 °C1021.10 hPa91.00 %3.60 °C1.56
16:15:005.20 °C1021.30 hPa91.00 %3.90 °C1.56
16:00:005.80 °C1021.60 hPa91.00 %4.40 °C1.04
15:45:005.90 °C1021.90 hPa91.00 %4.50 °C1.04
15:30:005.60 °C1022.10 hPa91.00 %4.20 °C1.04
15:15:005.60 °C1022.30 hPa91.00 %4.20 °C1.04
15:00:005.70 °C1022.40 hPa91.00 %4.30 °C1.04
14:45:005.80 °C1022.30 hPa91.00 %4.40 °C1.04
14:30:005.60 °C1022.60 hPa90.00 %4.10 °C1.04
14:15:006.40 °C1022.70 hPa91.00 %5.00 °C0.52
14:00:006.60 °C1022.80 hPa92.00 %5.40 °C0.52
13:45:005.90 °C1023.10 hPa91.00 %4.50 °C0.52
13:30:006.10 °C1023.20 hPa92.00 %4.90 °C0.52
13:15:005.80 °C1023.40 hPa92.00 %4.60 °C0.52
13:00:005.60 °C1023.70 hPa92.00 %4.40 °C0.52
12:45:005.80 °C1023.90 hPa92.00 %4.60 °C0.52
12:30:005.40 °C1024.00 hPa93.00 %4.40 °C0.52
12:15:005.10 °C1024.00 hPa93.00 %4.10 °C0.52
12:00:004.70 °C1024.10 hPa92.00 %3.50 °C0.52
11:45:004.90 °C1024.30 hPa93.00 %3.90 °C0.52
11:30:005.30 °C1024.30 hPa93.00 %4.30 °C0.52
11:15:005.60 °C1024.50 hPa94.00 %4.70 °C0.52
11:00:005.30 °C1024.70 hPa94.00 %4.40 °C0.52
10:45:004.90 °C1024.70 hPa94.00 %4.00 °C0.52
10:30:004.30 °C1024.70 hPa94.00 %3.40 °C0.52
10:15:003.70 °C1024.90 hPa94.00 %2.80 °C0.52
10:00:003.40 °C1024.80 hPa94.00 %2.50 °C0.52
09:45:003.30 °C1024.80 hPa94.00 %2.40 °C0.52
09:30:003.00 °C1024.70 hPa94.00 %2.10 °C0.52
09:15:002.90 °C1024.80 hPa94.00 %2.00 °C0.52
09:00:002.80 °C1024.60 hPa94.00 %1.90 °C0.52
08:45:002.60 °C1024.70 hPa93.00 %1.60 °C0.52
08:30:002.60 °C1024.70 hPa93.00 %1.60 °C0.52
08:15:002.50 °C1024.80 hPa93.00 %1.50 °C0.52
08:00:002.60 °C1025.00 hPa93.00 %1.60 °C0.52
07:45:002.50 °C1025.10 hPa93.00 %1.50 °C0.52
07:30:002.50 °C1025.00 hPa93.00 %1.50 °C0.52
07:15:002.50 °C1025.20 hPa93.00 %1.50 °C0.52
07:00:002.50 °C1025.20 hPa93.00 %1.50 °C0.52
06:45:002.50 °C1025.50 hPa93.00 %1.50 °C0.52
06:30:002.60 °C1025.70 hPa92.00 %1.40 °C0.52
06:15:002.60 °C1025.70 hPa93.00 %1.60 °C0.52
06:00:002.60 °C1025.90 hPa93.00 %1.60 °C0.52
05:45:002.70 °C1026.10 hPa93.00 %1.70 °C0.52
05:30:002.80 °C1026.10 hPa93.00 %1.80 °C0.52
05:15:002.90 °C1026.20 hPa93.00 %1.90 °C0.52
05:00:003.00 °C1026.10 hPa92.00 %1.80 °C0.52
04:45:003.10 °C1026.10 hPa92.00 %1.90 °C0.52
04:30:003.20 °C1026.40 hPa92.00 %2.00 °C0.52
04:15:003.30 °C1026.50 hPa92.00 %2.10 °C0.52
04:00:003.30 °C1026.40 hPa92.00 %2.10 °C0.52
03:45:003.30 °C1026.60 hPa92.00 %2.10 °C0.52
03:30:003.40 °C1026.60 hPa92.00 %2.20 °C0.52
03:15:003.50 °C1026.80 hPa92.00 %2.30 °C0.52
03:00:003.50 °C1027.00 hPa92.00 %2.30 °C0.52
02:45:003.60 °C1027.00 hPa92.00 %2.40 °C0.52
02:30:003.80 °C1027.10 hPa92.00 %2.60 °C0.52
02:15:004.10 °C1027.10 hPa92.00 %2.90 °C0.52
02:00:004.30 °C1027.30 hPa92.00 %3.10 °C0.52
01:45:004.40 °C1027.00 hPa92.00 %3.20 °C0.52
01:30:004.50 °C1027.10 hPa92.00 %3.30 °C0.52
01:15:004.60 °C1027.20 hPa92.00 %3.40 °C0.52
01:00:004.90 °C1027.00 hPa92.00 %3.70 °C 
00:45:005.10 °C1027.00 hPa92.00 %3.90 °C 
00:30:005.10 °C1026.90 hPa92.00 %3.90 °C 
00:15:005.10 °C1027.10 hPa92.00 %3.90 °C 
00:00:005.00 °C1027.10 hPa92.00 %3.80 °C 

Permanenter Link zu dieser Seite: Wetter im Erzgebirge am 05.10.2016
Performance-Info: Die Erstellung der Seite / Statistik(en) / Tabelle(n) erforderte 5 Datenbankserver-Abfrage(n) und dauerte 122 Millisekunden. (Dieser Messwert ist von der Gesamt-Auslastung des Servers abhängig.)
Erzgebirge - Wetter | Erzgebirge - Wetter (Mobilgeräte) | Komplette Klimadatenbank